Time;durP1;ratioP1;P1;durP2;ratioP2;P2;SDS_P1;SDS_P2;PMS_P1;PMS_P2;Temp;Humidity;BMP_temperature;BMP_pressure;BME280_temperature;BME280_humidity;BME280_pressure;Samples;Min_cycle;Max_cycle;Signal;HPM_P1;HPM_P2
2022/01/14 00:00:31;;;;;;;10.78;8.30;;;0.50;83.50;;;;;;1924592;74;21092;-44
2022/01/14 00:02:59;;;;;;;14.47;8.58;;;0.60;82.80;;;;;;1924691;74;21055;-44
2022/01/14 00:05:29;;;;;;;12.23;7.45;;;0.70;82.80;;;;;;1924629;74;21011;-44
2022/01/14 00:07:58;;;;;;;11.85;7.08;;;0.80;82.80;;;;;;1924815;74;21084;-43
2022/01/14 00:10:30;;;;;;;12.98;8.95;;;0.80;82.70;;;;;;1924619;74;21136;-44
2022/01/14 00:13:07;;;;;;;10.93;7.15;;;0.80;82.70;;;;;;1924675;74;21120;-43
2022/01/14 00:15:34;;;;;;;9.88;7.42;;;0.80;82.80;;;;;;1923725;74;21015;-44
2022/01/14 00:17:59;;;;;;;11.93;8.13;;;0.80;81.70;;;;;;1924205;74;21026;-44
2022/01/14 00:20:29;;;;;;;15.00;7.67;;;0.60;81.50;;;;;;1924616;74;21035;-43
2022/01/14 00:23:00;;;;;;;10.75;8.65;;;0.50;82.40;;;;;;1924627;74;21009;-44
2022/01/14 00:33:40;;;;;;;14.30;8.73;;;0.70;82.90;;;;;;1924805;74;21034;-44
2022/01/14 00:36:10;;;;;;;12.70;8.75;;;0.80;83.10;;;;;;1924647;74;21086;-44
2022/01/14 00:38:39;;;;;;;12.95;8.33;;;0.90;83.00;;;;;;1924605;74;21011;-44
2022/01/14 00:41:10;;;;;;;11.83;8.25;;;1.00;83.00;;;;;;1924749;74;21088;-43
2022/01/14 00:43:41;;;;;;;10.45;7.10;;;1.00;82.80;;;;;;1924660;74;21011;-44
2022/01/14 00:46:11;;;;;;;11.85;8.05;;;1.10;82.70;;;;;;1924727;74;21034;-43
2022/01/14 00:48:40;;;;;;;10.68;7.10;;;1.10;82.80;;;;;;1924801;74;21116;-44
2022/01/14 00:51:10;;;;;;;13.32;7.47;;;1.10;82.70;;;;;;1924608;74;21018;-43
2022/01/14 00:53:39;;;;;;;10.98;7.53;;;1.20;82.80;;;;;;1915584;74;21055;-44
2022/01/14 00:56:34;;;;;;;9.15;6.47;;;1.20;82.60;;;;;;1905225;75;21015;-43
2022/01/14 01:01:28;;;;;;;14.53;7.22;;;1.20;82.30;;;;;;1905387;74;21027;-43
2022/01/14 01:03:57;;;;;;;10.95;7.22;;;1.10;82.20;;;;;;1905272;75;21148;-44
2022/01/14 01:06:26;;;;;;;10.93;6.58;;;1.00;82.40;;;;;;1905344;75;21012;-44
2022/01/14 01:08:56;;;;;;;14.98;7.20;;;1.00;82.40;;;;;;1905384;74;21094;-43
2022/01/14 01:11:31;;;;;;;12.25;6.62;;;0.90;81.70;;;;;;1905263;75;21007;-43
2022/01/14 01:14:10;;;;;;;11.43;6.53;;;0.90;81.90;;;;;;1905013;74;21071;-43
2022/01/14 01:16:34;;;;;;;11.08;6.75;;;0.80;81.60;;;;;;1904781;74;21039;-44
2022/01/14 01:19:03;;;;;;;13.38;6.70;;;0.70;82.20;;;;;;1905230;74;21081;-44
2022/01/14 01:21:33;;;;;;;9.00;5.97;;;0.50;81.10;;;;;;1905367;75;21011;-44
2022/01/14 01:24:03;;;;;;;9.50;6.00;;;0.40;82.30;;;;;;1905246;75;21117;-44
2022/01/14 01:26:36;;;;;;;13.22;7.08;;;0.50;83.20;;;;;;1905254;75;21020;-44
2022/01/14 01:31:43;;;;;;;11.48;7.05;;;0.70;83.50;;;;;;1905394;74;21055;-44
2022/01/14 01:34:17;;;;;;;9.13;5.97;;;0.80;83.50;;;;;;1905368;74;21024;-45
2022/01/14 01:36:48;;;;;;;7.72;5.70;;;0.90;83.10;;;;;;1905052;74;21481;-44
2022/01/14 01:39:19;;;;;;;14.80;6.00;;;0.90;83.00;;;;;;1905435;75;21057;-44
2022/01/14 01:41:51;;;;;;;9.33;6.10;;;0.90;83.10;;;;;;1905396;75;21109;-44
2022/01/14 01:44:21;;;;;;;8.93;5.42;;;0.90;83.00;;;;;;1905259;74;21094;-44
2022/01/14 01:46:51;;;;;;;8.93;5.08;;;0.90;82.80;;;;;;1905255;74;21023;-45
2022/01/14 01:49:23;;;;;;;11.60;6.30;;;0.90;82.70;;;;;;1905233;75;20999;-44
2022/01/14 01:51:53;;;;;;;6.50;5.12;;;0.80;83.10;;;;;;1905374;74;21023;-45
2022/01/14 01:54:24;;;;;;;8.50;5.33;;;0.90;83.10;;;;;;1905244;74;21027;-45
2022/01/14 01:56:53;;;;;;;7.90;4.72;;;0.80;82.70;;;;;;1905311;75;21481;-45
2022/01/14 01:59:24;;;;;;;8.35;5.60;;;0.80;83.30;;;;;;1905179;75;21023;-46
2022/01/14 02:01:56;;;;;;;6.22;4.22;;;0.80;83.60;;;;;;1905289;75;21430;-44
2022/01/14 02:04:25;;;;;;;7.37;5.00;;;0.80;83.60;;;;;;1905336;75;21493;-45
2022/01/14 02:06:55;;;;;;;10.40;5.22;;;0.80;83.90;;;;;;1905227;75;21015;-44
2022/01/14 02:09:25;;;;;;;8.25;4.90;;;0.90;83.50;;;;;;1905352;75;21082;-44
2022/01/14 02:11:54;;;;;;;15.53;4.42;;;0.90;84.10;;;;;;1905375;74;21062;-45
2022/01/14 02:19:45;;;;;;;7.30;4.60;;;0.90;82.40;;;;;;1905267;75;21410;-45
2022/01/14 02:22:14;;;;;;;10.18;5.20;;;0.80;82.40;;;;;;1902454;74;21105;-46
2022/01/14 02:24:57;;;;;;;8.30;4.92;;;0.70;82.70;;;;;;1905334;75;21081;-44
2022/01/14 02:27:15;;;;;;;7.67;4.75;;;0.70;82.90;;;;;;1904094;74;21039;-44
2022/01/14 02:29:44;;;;;;;7.37;5.08;;;0.60;83.10;;;;;;1905357;75;20999;-45
2022/01/14 02:32:14;;;;;;;7.22;4.90;;;0.60;83.50;;;;;;1905212;75;21062;-45
2022/01/14 02:34:43;;;;;;;10.35;4.75;;;0.60;83.90;;;;;;1905251;74;21015;-44
2022/01/14 02:37:19;;;;;;;15.55;6.75;;;0.70;83.60;;;;;;1905206;75;21082;-44
2022/01/14 02:39:45;;;;;;;9.28;3.98;;;0.70;83.10;;;;;;1904860;74;21101;-44
2022/01/14 02:42:14;;;;;;;19.10;9.23;;;0.60;82.40;;;;;;1905323;75;21019;-44
2022/01/14 02:44:43;;;;;;;23.92;13.08;;;0.60;82.40;;;;;;1905190;75;21031;-44
2022/01/14 02:47:12;;;;;;;20.88;9.50;;;0.50;82.10;;;;;;1905215;75;21096;-45
2022/01/14 02:49:42;;;;;;;5.35;3.35;;;0.50;82.40;;;;;;1905211;75;21019;-44
2022/01/14 02:52:10;;;;;;;11.93;7.40;;;0.40;81.70;;;;;;1905195;75;21093;-44
2022/01/14 02:55:01;;;;;;;5.90;3.98;;;0.40;82.20;;;;;;1912174;74;21484;-44
2022/01/14 02:57:14;;;;;;;4.37;3.62;;;0.40;81.80;;;;;;1921408;74;21035;-44
2022/01/14 02:59:43;;;;;;;4.33;2.70;;;0.30;82.30;;;;;;1924699;74;21007;-44
2022/01/14 03:02:13;;;;;;;3.50;2.17;;;0.30;82.50;;;;;;1924585;74;21096;-46
2022/01/14 03:04:43;;;;;;;4.83;2.92;;;0.30;82.70;;;;;;1924565;74;21082;-45
2022/01/14 03:07:13;;;;;;;9.90;2.80;;;0.30;83.40;;;;;;1924577;74;21023;-45
2022/01/14 03:09:42;;;;;;;11.93;3.80;;;0.40;83.30;;;;;;1924499;74;21027;-45
2022/01/14 03:12:12;;;;;;;4.05;3.00;;;0.40;83.50;;;;;;1924567;74;21018;-44
2022/01/14 03:14:41;;;;;;;6.67;3.25;;;0.50;83.10;;;;;;1924544;74;20995;-44
2022/01/14 03:17:10;;;;;;;8.33;3.80;;;0.50;83.40;;;;;;1924578;74;21088;-44
2022/01/14 03:19:40;;;;;;;8.48;4.20;;;0.50;83.90;;;;;;1924617;74;21092;-45
2022/01/14 03:22:23;;;;;;;5.70;3.67;;;0.60;83.90;;;;;;1924636;74;21092;-45
2022/01/14 03:27:20;;;;;;;10.03;5.37;;;0.80;83.40;;;;;;1924534;74;21010;-45
2022/01/14 03:29:50;;;;;;;5.67;3.95;;;0.80;83.90;;;;;;1924647;74;21096;-44
2022/01/14 03:32:20;;;;;;;6.30;4.33;;;0.80;83.00;;;;;;1924540;74;21027;-44
2022/01/14 03:34:49;;;;;;;5.78;4.47;;;0.80;83.10;;;;;;1924767;74;21023;-45
2022/01/14 03:37:19;;;;;;;10.23;3.65;;;0.80;83.50;;;;;;1924662;74;21104;-45
2022/01/14 03:39:48;;;;;;;5.22;4.17;;;0.90;83.60;;;;;;1924725;74;21131;-44
2022/01/14 03:42:18;;;;;;;7.58;4.95;;;0.90;83.80;;;;;;1924627;74;21078;-44
2022/01/14 03:44:47;;;;;;;10.48;4.55;;;1.00;83.40;;;;;;1924643;74;21022;-45
2022/01/14 03:47:16;;;;;;;8.48;5.62;;;1.00;83.80;;;;;;1924618;74;21537;-45
2022/01/14 03:49:46;;;;;;;6.53;4.37;;;1.00;83.70;;;;;;1924758;74;21023;-44
2022/01/14 03:52:16;;;;;;;9.38;5.20;;;1.00;83.40;;;;;;1924811;74;21010;-44
2022/01/14 03:54:48;;;;;;;6.87;3.85;;;1.10;84.30;;;;;;1924814;74;21255;-44
2022/01/14 03:57:17;;;;;;;6.97;4.83;;;1.10;84.10;;;;;;1924808;74;21164;-45
2022/01/14 03:59:46;;;;;;;8.33;5.37;;;1.20;84.30;;;;;;1924613;74;21022;-45
2022/01/14 04:02:15;;;;;;;7.17;4.78;;;1.30;84.40;;;;;;1924770;74;21023;-44
2022/01/14 04:04:44;;;;;;;12.63;5.25;;;1.40;84.30;;;;;;1924765;74;21038;-45
2022/01/14 04:07:14;;;;;;;5.47;4.45;;;1.50;84.00;;;;;;1924738;74;20994;-44
2022/01/14 04:09:43;;;;;;;7.42;4.47;;;1.60;84.10;;;;;;1924769;74;21519;-46
2022/01/14 04:12:19;;;;;;;11.25;5.60;;;1.70;84.20;;;;;;1924760;74;21092;-45
2022/01/14 04:17:17;;;;;;;6.73;4.53;;;1.80;84.30;;;;;;1925062;74;21086;-45
2022/01/14 04:19:47;;;;;;;9.85;4.55;;;1.90;84.50;;;;;;1924724;74;21022;-44
2022/01/14 04:22:16;;;;;;;10.00;5.00;;;2.00;84.10;;;;;;1924671;74;21088;-44
2022/01/14 04:24:45;;;;;;;9.23;5.58;;;2.00;84.20;;;;;;1924612;74;21083;-45
2022/01/14 04:27:15;;;;;;;8.20;4.47;;;2.10;84.30;;;;;;1924811;74;20994;-44
2022/01/14 04:29:44;;;;;;;6.62;4.30;;;2.20;84.20;;;;;;1924654;74;21454;-43
2022/01/14 04:32:13;;;;;;;7.08;4.60;;;2.10;83.90;;;;;;1924732;74;21085;-44
2022/01/14 04:34:43;;;;;;;9.68;4.33;;;2.10;83.80;;;;;;1924733;74;21137;-43
2022/01/14 04:37:12;;;;;;;7.28;3.55;;;2.10;83.40;;;;;;1924626;74;21092;-44
2022/01/14 04:39:42;;;;;;;4.60;2.90;;;2.10;83.60;;;;;;1924706;74;21046;-43
2022/01/14 04:42:11;;;;;;;5.40;3.42;;;2.00;83.10;;;;;;1924734;74;21027;-44
2022/01/14 04:44:40;;;;;;;4.50;2.95;;;1.90;83.40;;;;;;1924746;74;21014;-45
2022/01/14 04:47:29;;;;;;;5.87;2.60;;;1.80;83.40;;;;;;1924765;74;21570;-44
2022/01/14 04:49:44;;;;;;;5.20;2.67;;;1.70;83.10;;;;;;1922405;74;21120;-44
2022/01/14 04:52:13;;;;;;;4.55;3.30;;;1.70;83.50;;;;;;1924763;74;21215;-45
2022/01/14 04:54:43;;;;;;;5.40;3.25;;;1.60;83.80;;;;;;1924643;74;21023;-44
2022/01/14 04:57:16;;;;;;;4.87;3.33;;;1.60;83.90;;;;;;1907618;74;21043;-43
2022/01/14 04:59:46;;;;;;;4.25;2.98;;;1.60;84.20;;;;;;1905242;75;21039;-44
2022/01/14 05:02:15;;;;;;;3.15;2.20;;;1.60;84.20;;;;;;1905240;74;21016;-44
2022/01/14 05:04:45;;;;;;;5.87;3.08;;;1.70;84.10;;;;;;1905224;75;21020;-44
2022/01/14 05:07:24;;;;;;;6.45;3.72;;;1.70;84.40;;;;;;1905288;75;21543;-45
2022/01/14 05:09:56;;;;;;;5.45;2.70;;;1.70;84.30;;;;;;1904532;74;21085;-45
2022/01/14 05:12:17;;;;;;;5.85;3.20;;;1.70;84.40;;;;;;1904503;74;21011;-44
2022/01/14 05:14:46;;;;;;;6.33;2.98;;;1.70;84.40;;;;;;1905185;75;21077;-46
2022/01/14 05:17:16;;;;;;;4.35;2.80;;;1.80;84.70;;;;;;1905346;74;21088;-45
2022/01/14 05:19:45;;;;;;;5.40;2.98;;;1.90;84.40;;;;;;1905143;75;21121;-44
2022/01/14 05:22:15;;;;;;;4.58;2.95;;;1.90;84.00;;;;;;1905254;74;20991;-45
2022/01/14 05:24:45;;;;;;;3.02;2.40;;;1.90;84.30;;;;;;1905190;75;21027;-44
2022/01/14 05:27:14;;;;;;;4.47;2.98;;;1.90;84.40;;;;;;1905196;75;21099;-45
2022/01/14 05:29:44;;;;;;;7.22;4.65;;;1.90;84.60;;;;;;1905174;75;21093;-44
2022/01/14 05:32:14;;;;;;;4.50;2.42;;;1.90;84.80;;;;;;1905271;75;21170;-46
2022/01/14 05:34:45;;;;;;;3.75;2.37;;;2.00;85.00;;;;;;1905298;75;21031;-45
2022/01/14 05:37:15;;;;;;;4.17;2.95;;;2.00;85.50;;;;;;1905250;75;21085;-45
2022/01/14 05:39:44;;;;;;;6.92;3.12;;;2.00;84.90;;;;;;1905128;75;21104;-44
2022/01/14 05:42:14;;;;;;;4.33;3.00;;;2.00;84.70;;;;;;1905288;74;21039;-45
2022/01/14 05:44:43;;;;;;;9.00;5.45;;;2.00;85.20;;;;;;1905211;75;21122;-45
2022/01/14 05:47:12;;;;;;;7.97;3.15;;;2.10;85.10;;;;;;1905233;75;21014;-45
2022/01/14 05:49:42;;;;;;;5.83;2.98;;;2.10;85.40;;;;;;1905323;75;21023;-45
2022/01/14 05:52:11;;;;;;;6.20;4.12;;;2.10;85.70;;;;;;1905277;75;21482;-45
2022/01/14 05:54:41;;;;;;;5.90;3.47;;;2.10;85.20;;;;;;1905153;75;21148;-44
2022/01/14 05:57:11;;;;;;;1.65;1.52;;;2.10;85.70;;;;;;1905171;74;21055;-45
2022/01/14 05:59:40;;;;;;;5.25;3.85;;;2.20;86.50;;;;;;1905200;75;21043;-44
2022/01/14 06:02:09;;;;;;;4.87;2.45;;;2.20;86.10;;;;;;1905213;75;21051;-45
2022/01/14 06:04:39;;;;;;;6.62;4.00;;;2.20;86.80;;;;;;1905139;74;21100;-44
2022/01/14 06:07:08;;;;;;;5.70;3.27;;;2.20;86.40;;;;;;1905335;75;21003;-45
2022/01/14 06:09:39;;;;;;;3.72;2.72;;;2.20;86.30;;;;;;1905258;74;21027;-44
2022/01/14 06:12:09;;;;;;;5.80;3.47;;;2.30;86.80;;;;;;1905211;74;20996;-44
2022/01/14 06:14:38;;;;;;;5.22;3.08;;;2.30;87.20;;;;;;1905195;75;21004;-45
2022/01/14 06:17:08;;;;;;;4.70;2.92;;;2.30;86.80;;;;;;1905189;74;21085;-45
2022/01/14 06:19:37;;;;;;;3.90;2.17;;;2.30;87.10;;;;;;1905133;75;21093;-45
2022/01/14 06:22:07;;;;;;;3.37;2.72;;;2.40;87.90;;;;;;1905203;75;20995;-44
2022/01/14 06:24:36;;;;;;;3.75;2.70;;;2.40;87.00;;;;;;1905267;75;21044;-45
2022/01/14 06:27:06;;;;;;;4.35;3.33;;;2.40;87.20;;;;;;1905310;75;21520;-45
2022/01/14 06:29:35;;;;;;;5.97;3.12;;;2.40;87.20;;;;;;1905102;74;21020;-44
2022/01/14 06:32:05;;;;;;;5.65;3.40;;;2.50;87.00;;;;;;1905289;75;21430;-44
2022/01/14 06:34:34;;;;;;;5.87;2.90;;;2.50;87.40;;;;;;1905208;75;21039;-44
2022/01/14 06:37:04;;;;;;;9.73;3.40;;;2.50;87.10;;;;;;1905203;75;21019;-45
2022/01/14 06:39:34;;;;;;;8.33;5.72;;;2.60;87.00;;;;;;1905189;75;21008;-45
2022/01/14 06:42:03;;;;;;;10.53;7.15;;;2.60;86.80;;;;;;1905144;74;21121;-45
2022/01/14 06:44:32;;;;;;;3.55;2.40;;;2.70;87.40;;;;;;1905166;75;20999;-44
2022/01/14 06:47:02;;;;;;;3.80;2.22;;;2.80;87.30;;;;;;1905297;74;21031;-45
2022/01/14 06:49:31;;;;;;;5.15;3.02;;;2.80;87.40;;;;;;1905125;74;21027;-44
2022/01/14 06:52:00;;;;;;;2.45;2.17;;;2.80;87.20;;;;;;1905279;75;21035;-45
2022/01/14 06:54:30;;;;;;;4.35;3.35;;;2.90;87.40;;;;;;1905128;75;21140;-45
2022/01/14 06:57:00;;;;;;;4.72;2.90;;;2.90;86.70;;;;;;1910819;74;21160;-44
2022/01/14 06:59:29;;;;;;;3.62;2.87;;;3.00;86.80;;;;;;1924483;74;21101;-45
2022/01/14 07:01:59;;;;;;;4.12;2.75;;;3.00;86.90;;;;;;1924569;74;21022;-45
2022/01/14 07:04:28;;;;;;;3.45;1.98;;;3.00;87.30;;;;;;1924536;74;20995;-45
2022/01/14 07:06:58;;;;;;;2.92;2.42;;;3.00;86.80;;;;;;1924606;74;21183;-45
2022/01/14 07:09:29;;;;;;;3.17;2.12;;;3.10;87.10;;;;;;1924560;74;21011;-45
2022/01/14 07:12:00;;;;;;;3.58;2.55;;;3.10;87.60;;;;;;1924666;74;21015;-46
2022/01/14 07:14:30;;;;;;;3.42;2.35;;;3.10;87.20;;;;;;1924706;74;21011;-45
2022/01/14 07:16:59;;;;;;;3.85;2.17;;;3.10;87.50;;;;;;1924625;74;20995;-44
2022/01/14 07:19:28;;;;;;;3.47;2.60;;;3.20;86.90;;;;;;1924524;74;21100;-44
2022/01/14 07:21:57;;;;;;;5.08;2.67;;;3.20;87.20;;;;;;1924722;74;21018;-45
2022/01/14 07:24:27;;;;;;;5.12;2.87;;;3.30;87.80;;;;;;1924736;74;21023;-44
2022/01/14 07:26:55;;;;;;;6.35;2.72;;;3.30;87.10;;;;;;1924789;74;20999;-45
2022/01/14 07:29:25;;;;;;;6.05;3.17;;;3.30;87.10;;;;;;1924890;74;21038;-44
2022/01/14 07:31:54;;;;;;;4.70;3.00;;;3.30;87.50;;;;;;1924850;74;21018;-45
2022/01/14 07:34:24;;;;;;;4.10;3.15;;;3.30;87.30;;;;;;1924724;74;21121;-44
2022/01/14 07:36:53;;;;;;;18.07;10.15;;;3.30;87.20;;;;;;1924737;74;21019;-44
2022/01/14 07:39:23;;;;;;;3.02;2.17;;;3.30;87.70;;;;;;1924664;74;21084;-45
2022/01/14 07:41:52;;;;;;;3.58;2.80;;;3.30;87.80;;;;;;1924725;74;21019;-44
2022/01/14 07:44:22;;;;;;;3.15;2.20;;;3.40;87.90;;;;;;1924606;74;21024;-44
2022/01/14 07:46:51;;;;;;;4.37;3.22;;;3.40;87.90;;;;;;1924612;74;21082;-45
2022/01/14 07:49:21;;;;;;;8.30;3.02;;;3.50;87.20;;;;;;1924587;74;21065;-45
2022/01/14 07:51:50;;;;;;;4.53;2.50;;;3.60;87.50;;;;;;1924769;74;21023;-45
2022/01/14 07:54:19;;;;;;;2.92;2.62;;;3.60;87.70;;;;;;1924672;74;21018;-45
2022/01/14 07:56:52;;;;;;;4.12;2.87;;;3.70;87.40;;;;;;1924656;74;21018;-45
2022/01/14 07:59:23;;;;;;;5.72;2.67;;;3.80;87.30;;;;;;1924685;74;21074;-45
2022/01/14 08:01:57;;;;;;;3.47;2.80;;;4.00;87.30;;;;;;1924698;74;21039;-44
2022/01/14 08:04:28;;;;;;;5.50;3.25;;;4.00;87.20;;;;;;1924763;74;21445;-44
2022/01/14 08:07:08;;;;;;;5.12;3.42;;;4.10;87.40;;;;;;1924716;74;21121;-45
2022/01/14 08:09:28;;;;;;;4.42;2.62;;;4.20;87.40;;;;;;1923471;74;21027;-45
2022/01/14 08:11:59;;;;;;;5.60;2.60;;;4.20;87.30;;;;;;1924800;74;21014;-45
2022/01/14 08:14:28;;;;;;;4.17;3.22;;;4.30;87.20;;;;;;1924671;74;21018;-44
2022/01/14 08:16:57;;;;;;;3.20;2.75;;;4.30;87.20;;;;;;1924698;74;21010;-45
2022/01/14 08:19:32;;;;;;;9.25;4.55;;;4.40;87.40;;;;;;1923309;74;21026;-45
2022/01/14 08:21:58;;;;;;;5.53;3.05;;;4.40;87.50;;;;;;1923698;74;21030;-44
2022/01/14 08:24:27;;;;;;;4.10;3.70;;;4.40;87.80;;;;;;1924107;74;21108;-45
2022/01/14 08:26:56;;;;;;;10.55;4.17;;;4.40;87.70;;;;;;1923903;74;21500;-45
2022/01/14 08:29:32;;;;;;;7.90;3.45;;;4.40;87.90;;;;;;1923998;74;21060;-46
2022/01/14 08:31:57;;;;;;;6.28;2.65;;;4.40;88.20;;;;;;1923146;74;21092;-47
2022/01/14 08:34:27;;;;;;;3.75;2.60;;;4.40;88.00;;;;;;1923890;74;21160;-46
2022/01/14 08:36:56;;;;;;;2.30;1.50;;;4.40;88.60;;;;;;1924005;74;21078;-46
2022/01/14 08:39:26;;;;;;;3.27;1.30;;;4.40;88.50;;;;;;1923845;74;21018;-46
2022/01/14 08:41:55;;;;;;;3.30;2.02;;;4.40;88.90;;;;;;1923930;74;21026;-45
2022/01/14 08:44:24;;;;;;;2.35;1.67;;;4.30;88.70;;;;;;1923984;74;21019;-47
2022/01/14 08:46:55;;;;;;;3.02;1.95;;;4.30;88.60;;;;;;1924162;74;21104;-46
2022/01/14 08:49:24;;;;;;;2.25;1.55;;;4.30;89.10;;;;;;1923942;74;21168;-45
2022/01/14 08:51:53;;;;;;;4.37;2.35;;;4.30;88.70;;;;;;1924122;74;21028;-46
2022/01/14 08:54:23;;;;;;;3.30;1.70;;;4.40;88.70;;;;;;1924069;74;21184;-45
2022/01/14 08:56:52;;;;;;;2.60;1.65;;;4.40;89.30;;;;;;1923927;74;21163;-46
2022/01/14 11:24:51;;;;;;;11.40;4.67;;;3.60;91.60;;;;;;1958320;72;24965;-46
2022/01/14 11:27:22;;;;;;;10.00;4.97;;;3.60;91.70;;;;;;1917891;75;21473;-44
2022/01/14 11:29:57;;;;;;;10.58;5.85;;;3.70;91.60;;;;;;1917713;75;21140;-44
2022/01/14 11:32:23;;;;;;;11.22;5.35;;;3.70;91.40;;;;;;1917002;74;21811;-44
2022/01/14 11:34:55;;;;;;;12.25;6.03;;;3.70;91.40;;;;;;1917681;73;21019;-45
2022/01/14 11:37:35;;;;;;;10.72;5.22;;;3.80;91.50;;;;;;1917682;75;20999;-45
2022/01/14 11:40:12;;;;;;;8.13;5.42;;;3.80;91.60;;;;;;1917402;75;21023;-45
2022/01/14 11:42:48;;;;;;;12.37;6.00;;;3.80;91.50;;;;;;1917688;74;21441;-44
2022/01/14 11:45:20;;;;;;;11.73;6.78;;;3.90;91.40;;;;;;1917641;75;21084;-45
2022/01/14 11:47:51;;;;;;;10.45;5.87;;;3.90;91.50;;;;;;1917652;75;21066;-46
2022/01/14 11:50:23;;;;;;;17.32;7.45;;;4.00;91.40;;;;;;1894824;75;21153;-46
2022/01/14 11:52:54;;;;;;;8.48;5.53;;;4.00;91.50;;;;;;1917541;75;21014;-47
2022/01/14 11:55:26;;;;;;;9.08;5.03;;;4.10;91.50;;;;;;1917662;75;21147;-45
2022/01/14 11:57:57;;;;;;;8.03;4.40;;;4.10;91.30;;;;;;1917669;75;21500;-45
2022/01/14 12:00:38;;;;;;;9.30;4.15;;;4.10;91.40;;;;;;1917548;75;21520;-45
2022/01/14 12:03:12;;;;;;;6.67;4.22;;;4.10;91.20;;;;;;1916124;73;21003;-47
2022/01/14 12:05:56;;;;;;;13.68;4.95;;;4.20;91.10;;;;;;1916579;75;21100;-45
2022/01/14 12:08:31;;;;;;;7.30;4.75;;;4.20;91.20;;;;;;1917835;75;21011;-45
2022/01/14 12:11:13;;;;;;;11.22;5.17;;;4.20;91.20;;;;;;1917851;75;21007;-44
2022/01/14 12:13:55;;;;;;;11.70;5.12;;;4.20;91.20;;;;;;1917692;75;21090;-45
2022/01/14 12:19:07;;;;;;;4.67;3.52;;;4.30;91.20;;;;;;1917719;75;21128;-44
2022/01/14 12:21:51;;;;;;;7.97;4.45;;;4.30;91.20;;;;;;1917624;74;21096;-44
2022/01/14 12:24:32;;;;;;;5.70;3.70;;;4.30;91.10;;;;;;1910588;75;21051;-44
2022/01/14 12:27:13;;;;;;;6.60;3.72;;;4.40;91.30;;;;;;1903409;74;21039;-44
2022/01/14 12:29:43;;;;;;;5.35;3.27;;;4.40;91.30;;;;;;1904294;74;21477;-44
2022/01/14 12:32:21;;;;;;;5.75;3.55;;;4.50;91.10;;;;;;1905388;74;21059;-43
2022/01/14 12:34:59;;;;;;;7.65;4.28;;;4.50;91.10;;;;;;1904963;75;21055;-43
2022/01/14 12:37:33;;;;;;;4.53;3.52;;;4.50;90.90;;;;;;1904571;75;21157;-44
2022/01/14 12:40:06;;;;;;;;;;;4.50;90.90;;;;;;1906553;74;21075;-43
2022/01/14 12:42:38;;;;;;;5.03;3.25;;;4.50;91.20;;;;;;1904950;75;20128;-44
2022/01/14 12:45:11;;;;;;;4.58;3.25;;;4.50;90.90;;;;;;1905383;75;21085;-43
2022/01/14 12:47:41;;;;;;;4.33;3.72;;;4.50;91.00;;;;;;1892424;75;21515;-44
2022/01/14 12:50:12;;;;;;;7.78;3.65;;;4.50;90.90;;;;;;1905424;75;21103;-42
2022/01/14 12:52:50;;;;;;;5.15;3.30;;;4.50;91.00;;;;;;1905386;74;21027;-43
2022/01/14 12:55:20;;;;;;;6.10;4.22;;;4.50;91.00;;;;;;1905288;75;21019;-43
2022/01/14 12:57:51;;;;;;;4.28;3.22;;;4.50;91.10;;;;;;1905354;75;21048;-44
2022/01/14 13:00:22;;;;;;;4.22;3.27;;;4.50;91.00;;;;;;1904977;74;21043;-42
2022/01/14 13:02:52;;;;;;;9.05;4.00;;;4.50;91.00;;;;;;1905413;74;21519;-43
2022/01/14 13:05:24;;;;;;;4.60;3.55;;;4.50;90.90;;;;;;1892706;75;21469;-42
2022/01/14 13:07:53;;;;;;;10.32;4.00;;;4.60;90.90;;;;;;1892511;75;21105;-43
2022/01/14 13:10:24;;;;;;;6.50;3.67;;;4.70;90.90;;;;;;1905399;75;21082;-42
2022/01/14 13:12:54;;;;;;;8.75;3.83;;;4.70;91.10;;;;;;1905270;75;21047;-43
2022/01/14 13:15:26;;;;;;;4.17;3.37;;;4.80;90.90;;;;;;1905282;74;21292;-43
2022/01/14 13:18:02;;;;;;;5.53;3.37;;;4.80;91.00;;;;;;1905226;75;21019;-43
2022/01/14 13:20:32;;;;;;;8.65;4.05;;;4.80;91.00;;;;;;1905249;75;21035;-43
2022/01/14 13:23:07;;;;;;;8.18;4.03;;;4.80;91.00;;;;;;1905239;75;21011;-43
2022/01/14 13:25:34;;;;;;;5.22;4.00;;;4.70;90.80;;;;;;1904965;74;21105;-43
2022/01/14 13:28:04;;;;;;;7.70;4.65;;;4.60;90.80;;;;;;1905282;75;21092;-43
2022/01/14 13:30:41;;;;;;;5.55;3.80;;;4.50;90.90;;;;;;1905252;75;21039;-43
2022/01/14 13:33:20;;;;;;;3.67;3.05;;;4.50;91.00;;;;;;1905229;74;21477;-43
2022/01/14 13:35:46;;;;;;;5.72;3.87;;;4.40;91.20;;;;;;1903748;74;21132;-43
2022/01/14 13:38:18;;;;;;;4.87;3.37;;;4.30;91.00;;;;;;1905282;75;21023;-42
2022/01/14 13:40:51;;;;;;;6.40;4.00;;;4.30;91.10;;;;;;1905227;74;21020;-43
2022/01/14 13:43:23;;;;;;;6.25;3.77;;;4.30;91.30;;;;;;1905286;74;21043;-44
2022/01/14 13:45:54;;;;;;;5.37;3.95;;;4.20;91.50;;;;;;1905156;74;21024;-44
2022/01/14 13:48:26;;;;;;;6.20;3.72;;;4.20;91.30;;;;;;1905190;74;21524;-43
2022/01/14 13:51:04;;;;;;;7.90;5.00;;;4.20;91.50;;;;;;1905254;75;21023;-43
2022/01/14 13:53:38;;;;;;;7.08;4.40;;;4.20;91.30;;;;;;1905329;75;21043;-43
2022/01/14 13:56:10;;;;;;;8.75;4.28;;;4.20;91.50;;;;;;1901909;74;21524;-43
2022/01/14 13:58:41;;;;;;;7.28;3.80;;;4.30;91.70;;;;;;1905232;75;21023;-44
2022/01/14 14:01:11;;;;;;;3.58;2.87;;;4.30;91.90;;;;;;1905229;75;21000;-44
2022/01/14 14:03:52;;;;;;;4.03;2.52;;;4.30;92.00;;;;;;1905442;75;21101;-42
2022/01/14 14:06:23;;;;;;;5.40;3.27;;;4.40;91.90;;;;;;1904849;74;21028;-43
2022/01/14 14:09:00;;;;;;;4.42;2.92;;;4.50;92.00;;;;;;1905233;74;21065;-43
2022/01/14 14:17:12;;;;;;;6.22;3.15;;;4.70;91.70;;;;;;1905364;75;21035;-42
2022/01/14 14:19:58;;;;;;;4.78;3.00;;;4.80;91.70;;;;;;1905321;75;21073;-43
2022/01/14 14:22:40;;;;;;;4.35;3.77;;;4.80;91.60;;;;;;1905306;75;21094;-43
2022/01/14 14:25:23;;;;;;;4.08;3.37;;;4.90;91.40;;;;;;1905217;75;21055;-43
2022/01/14 14:28:06;;;;;;;5.03;3.15;;;4.90;91.30;;;;;;1904977;74;21498;-42
2022/01/14 14:30:50;;;;;;;5.10;3.10;;;4.90;91.30;;;;;;1905234;74;21035;-43
2022/01/14 14:33:21;;;;;;;5.95;3.10;;;5.00;91.20;;;;;;1905334;75;21023;-43
2022/01/14 14:35:56;;;;;;;5.58;3.42;;;5.00;91.30;;;;;;1905226;75;21043;-43
2022/01/14 14:38:26;;;;;;;6.70;3.67;;;5.00;91.20;;;;;;1905060;74;21015;-42
2022/01/14 14:40:59;;;;;;;5.53;3.55;;;5.00;91.20;;;;;;1905305;74;21145;-44
2022/01/14 14:43:25;;;;;;;8.60;3.40;;;5.00;91.20;;;;;;1905092;74;21043;-42
2022/01/14 14:45:54;;;;;;;3.90;2.58;;;5.00;91.30;;;;;;1905211;75;21062;-43
2022/01/14 14:48:25;;;;;;;4.80;2.12;;;5.00;91.40;;;;;;1905198;75;21035;-43
2022/01/14 14:50:55;;;;;;;1.70;1.27;;;5.00;91.40;;;;;;1905344;75;21083;-42
2022/01/14 14:53:24;;;;;;;1.60;1.15;;;5.00;91.40;;;;;;1905360;75;21102;-44
2022/01/14 14:55:54;;;;;;;1.87;1.47;;;5.10;91.60;;;;;;1905234;75;21073;-44
2022/01/14 14:58:23;;;;;;;1.45;1.20;;;5.10;91.60;;;;;;1905222;75;21253;-45
2022/01/14 15:00:53;;;;;;;6.78;2.40;;;5.20;91.70;;;;;;1905217;74;21015;-44
2022/01/14 15:03:22;;;;;;;3.05;1.98;;;5.20;91.60;;;;;;1905412;75;21082;-43
2022/01/14 15:05:52;;;;;;;4.08;2.30;;;5.20;91.70;;;;;;1905401;75;21011;-42
2022/01/14 15:08:21;;;;;;;3.47;3.17;;;5.30;91.90;;;;;;1905372;75;21179;-42
2022/01/14 15:10:51;;;;;;;7.45;2.20;;;5.40;91.80;;;;;;1905389;75;20999;-43
2022/01/14 15:13:22;;;;;;;3.10;2.10;;;5.40;91.70;;;;;;1905396;75;21023;-43
2022/01/14 15:18:28;;;;;;;2.42;1.95;;;5.50;91.50;;;;;;1905272;75;21019;-43
2022/01/14 15:20:58;;;;;;;2.40;2.10;;;5.50;91.40;;;;;;1905320;75;21023;-43
2022/01/14 15:23:27;;;;;;;6.70;3.12;;;5.60;91.30;;;;;;1905344;75;21023;-44
2022/01/14 15:25:57;;;;;;;3.77;2.08;;;5.60;91.20;;;;;;1915491;74;21097;-43
2022/01/14 15:28:27;;;;;;;4.33;2.12;;;5.70;91.20;;;;;;1924666;74;21031;-43
2022/01/14 15:30:57;;;;;;;2.67;2.35;;;5.70;91.10;;;;;;1924737;74;21151;-42
2022/01/14 15:33:26;;;;;;;3.25;1.98;;;5.70;90.80;;;;;;1924668;74;21006;-44
2022/01/14 15:35:56;;;;;;;4.62;2.62;;;5.70;90.70;;;;;;1924629;74;20999;-43
2022/01/14 15:38:26;;;;;;;4.05;2.17;;;5.70;90.50;;;;;;1924656;74;21080;-43
2022/01/14 15:41:00;;;;;;;5.35;3.27;;;5.80;90.40;;;;;;1924498;74;21074;-43
2022/01/14 15:43:30;;;;;;;3.30;2.22;;;5.80;90.20;;;;;;1924789;74;21026;-43
2022/01/14 15:46:02;;;;;;;2.52;1.57;;;5.80;90.00;;;;;;1924500;74;21054;-44
2022/01/14 15:48:31;;;;;;;3.62;2.00;;;5.80;90.00;;;;;;1924047;74;20991;-43
2022/01/14 15:51:01;;;;;;;3.58;2.10;;;5.80;90.00;;;;;;1924631;74;21031;-47
2022/01/14 15:53:30;;;;;;;5.12;2.12;;;5.80;90.10;;;;;;1924671;74;21084;-43
2022/01/14 15:56:00;;;;;;;2.30;2.08;;;5.80;90.10;;;;;;1924528;74;21039;-43
2022/01/14 15:58:29;;;;;;;3.47;2.60;;;5.80;90.10;;;;;;1924474;74;21088;-46
2022/01/14 16:00:59;;;;;;;9.18;3.65;;;5.80;90.10;;;;;;1924530;74;21015;-45
2022/01/14 16:03:29;;;;;;;3.08;2.37;;;5.80;90.20;;;;;;1924559;74;21003;-44
2022/01/14 16:05:58;;;;;;;5.22;3.42;;;5.80;90.10;;;;;;1924494;74;21076;-44
2022/01/14 16:08:28;;;;;;;4.20;2.67;;;5.80;90.00;;;;;;1924701;74;21105;-43
2022/01/14 16:10:59;;;;;;;5.42;2.87;;;5.80;90.00;;;;;;1924542;74;21068;-43
2022/01/14 16:13:29;;;;;;;3.92;2.52;;;5.90;89.90;;;;;;1924796;74;21030;-43